メインページ
METAR-TAF:

METAR-TAF

空港 :

リスボン, ポルトガル

ウンベルト・デルガード空港

緯度: 38-46N, 経度: 009-08W, 海抜: 114m

現時点の気象観測

当レポートは30分前の23:30(UTC)に作成
無風
気温 7°C
湿度 87%
気圧 1009 hPa
視程10km以上
1,500メートル以下は雲なし、積乱雲なし

METAR: LPPT 242330Z 00000KT CAVOK 07/05 Q1009

時間: 00:00 (00:00 UTC)

予報

当レポートは1時間0分前の23:00(UTC)に作成
予報は25日の 00時(UTC)から 26日の 06時(UTC)まで有効
変向風 3kt
視程10km以上
1,500メートル以下は雲なし、積乱雲なし
25日の 00時(UTC)から 25日の 12時(UTC)まで一時的に
視程10km以上
高度4000ftの千切れ雲あり
確率 30%
25日の 05時(UTC)から 25日の 09時(UTC)まで
視程: 5000m
高度800ftの雲は散在している
25日の 06時(UTC)から 25日の 09時(UTC)まで徐々に
東/北東の風 8kt
25日の 13時(UTC)から 25日の 15時(UTC)まで徐々に
の風 8kt
25日の 22時(UTC)から 25日の 24時(UTC)まで徐々に
東/南東の風 8kt
26日の 04時(UTC)から 26日の 06時(UTC)まで徐々に
東/北東の風 8kt

TAF: LPPT 242300Z 2500/2606 VRB03KT CAVOK TEMPO 2500/2512 9999 BKN040 PROB30 2505/2509 5000 BR SCT008 BECMG 2506/2509 07008KT BECMG 2513/2515 17008KT BECMG 2522/2524 12008KT BECMG 2604/2606 06008KT

4,000以上の空港の気象観測と天気予報(METAR報とTAF報)

利用可能な観測所は地図上に黄色い丸と赤い丸で示す。

丸の上にカーソルを重ねると観測所名を参照できる。

次にクリックすると気象観測と天気予報を参照できる。

マップの切り替え:黒色「×」印の緑ボタンをクリックして拡大、「-」印の緑ボタンをクリックして縮小、緑色の三角印をクリックして隣りの地図に切り替え


METAR-TAF: